TVS4583 LFBT-EGAA
Flight info
| Callsign | TVS4583 |
|---|---|
| Flight time | 1h 49m |
| Altitude | 36000 |
| Route | USAKU DCT AGN DCT SECHE DCT UVELI DCT CNA DCT MANAK DCT MUREL DCT NOZHU/N0437F350 DCT SHIRI/N0433F340 DCT UNFIT DCT PENWU DCT NICXI DCT PEMOB DCT VATRY DCT DUB N34 BELZU |
| Aircraft | B738/M-SDFGHIJ1LORVWXYZ/LB1 |
Departure
| Time | 2026-04-29 18:05 |
|---|---|
| Airport | Tarbes-Lourdes-Pyrénées Airport (LFBT) |
Arrival
| Time | 2026-04-29 19:55 |
|---|---|
| Airport | Belfast International Airport (EGAA) |
| Time | Latitude | Longitude | Altitude | Speed | Heading |
|---|---|---|---|---|---|
| 2026-04-29 17:53 | 43.18481 | 0.00363 | 1195 ft | 0 kts | 15° |
| 2026-04-29 17:58 | 43.18461 | 0.00356 | 1195 ft | 4 kts | 13° |
| 2026-04-29 17:58 | 43.18439 | 0.00350 | 1195 ft | 4 kts | 6° |
| 2026-04-29 17:58 | 43.18416 | 0.00350 | 1196 ft | 4 kts | 343° |
| 2026-04-29 17:58 | 43.18401 | 0.00363 | 1196 ft | 2 kts | 291° |
| 2026-04-29 17:59 | 43.18400 | 0.00364 | 1196 ft | 3 kts | 291° |
| 2026-04-29 18:00 | 43.18402 | 0.00360 | 1196 ft | 2 kts | 291° |
| 2026-04-29 18:00 | 43.18407 | 0.00308 | 1196 ft | 10 kts | 275° |
| 2026-04-29 18:00 | 43.18425 | 0.00185 | 1197 ft | 15 kts | 284° |
| 2026-04-29 18:00 | 43.18382 | 0.00086 | 1199 ft | 13 kts | 207° |
| 2026-04-29 18:01 | 43.18302 | 0.00027 | 1202 ft | 13 kts | 209° |
| 2026-04-29 18:01 | 43.18211 | -0.00042 | 1205 ft | 17 kts | 210° |
| 2026-04-29 18:01 | 43.18095 | -0.00131 | 1209 ft | 21 kts | 209° |
| 2026-04-29 18:01 | 43.17956 | -0.00236 | 1213 ft | 25 kts | 208° |
| 2026-04-29 18:02 | 43.17796 | -0.00356 | 1218 ft | 28 kts | 210° |
| 2026-04-29 18:02 | 43.17632 | -0.00474 | 1223 ft | 26 kts | 205° |
| 2026-04-29 18:02 | 43.17472 | -0.00568 | 1227 ft | 24 kts | 200° |
| 2026-04-29 18:02 | 43.17319 | -0.00644 | 1235 ft | 23 kts | 200° |
| 2026-04-29 18:03 | 43.17172 | -0.00719 | 1254 ft | 22 kts | 200° |
| 2026-04-29 18:03 | 43.17021 | -0.00796 | 1251 ft | 24 kts | 200° |
| 2026-04-29 18:03 | 43.16856 | -0.00880 | 1257 ft | 26 kts | 200° |
| 2026-04-29 18:03 | 43.16696 | -0.00970 | 1258 ft | 24 kts | 212° |
| 2026-04-29 18:04 | 43.16584 | -0.01125 | 1265 ft | 23 kts | 251° |
| 2026-04-29 18:04 | 43.16646 | -0.01246 | 1267 ft | 17 kts | 9° |
| 2026-04-29 18:04 | 43.16897 | -0.01125 | 1259 ft | 73 kts | 20° |
| 2026-04-29 18:04 | 43.17597 | -0.00771 | 1224 ft | 140 kts | 20° |
| 2026-04-29 18:05 | 43.18657 | -0.00235 | 1423 ft | 174 kts | 21° |
| 2026-04-29 18:05 | 43.19797 | 0.00344 | 2204 ft | 176 kts | 21° |
| 2026-04-29 18:05 | 43.21057 | 0.00753 | 2631 ft | 204 kts | 356° |
| 2026-04-29 18:05 | 43.22528 | 0.00310 | 2876 ft | 230 kts | 347° |
| 2026-04-29 18:06 | 43.24171 | -0.00243 | 3049 ft | 257 kts | 348° |
| 2026-04-29 18:06 | 43.25991 | -0.00836 | 3428 ft | 277 kts | 349° |
| 2026-04-29 18:06 | 43.27889 | -0.01444 | 4254 ft | 281 kts | 349° |
| 2026-04-29 18:06 | 43.29804 | -0.02051 | 5131 ft | 285 kts | 349° |
| 2026-04-29 18:07 | 43.31761 | -0.02659 | 5921 ft | 291 kts | 349° |
| 2026-04-29 18:07 | 43.33742 | -0.03270 | 6761 ft | 294 kts | 349° |
| 2026-04-29 18:07 | 43.35755 | -0.03887 | 7569 ft | 298 kts | 349° |
| 2026-04-29 18:07 | 43.37789 | -0.04508 | 8338 ft | 302 kts | 348° |
| 2026-04-29 18:08 | 43.39864 | -0.05138 | 9050 ft | 308 kts | 348° |
| 2026-04-29 18:08 | 43.41964 | -0.05774 | 9847 ft | 309 kts | 348° |
| 2026-04-29 18:08 | 43.44096 | -0.06418 | 10441 ft | 321 kts | 347° |
| 2026-04-29 18:08 | 43.46331 | -0.07093 | 10642 ft | 345 kts | 347° |
| 2026-04-29 18:09 | 43.48723 | -0.07818 | 11078 ft | 358 kts | 347° |
| 2026-04-29 18:09 | 43.51167 | -0.08559 | 11804 ft | 360 kts | 346° |
| 2026-04-29 18:09 | 43.53615 | -0.09302 | 12629 ft | 361 kts | 345° |
| 2026-04-29 18:09 | 43.56073 | -0.10048 | 13355 ft | 364 kts | 345° |
| 2026-04-29 18:10 | 43.58567 | -0.10805 | 13976 ft | 370 kts | 345° |
| 2026-04-29 18:10 | 43.61097 | -0.11573 | 14599 ft | 375 kts | 345° |
| 2026-04-29 18:10 | 43.63659 | -0.12351 | 15228 ft | 379 kts | 345° |
| 2026-04-29 18:10 | 43.66251 | -0.13138 | 15838 ft | 384 kts | 345° |
| 2026-04-29 18:11 | 43.68873 | -0.13935 | 16496 ft | 386 kts | 346° |
| 2026-04-29 18:11 | 43.71502 | -0.14733 | 17159 ft | 388 kts | 346° |
| 2026-04-29 18:11 | 43.74157 | -0.15542 | 17735 ft | 393 kts | 346° |
| 2026-04-29 18:11 | 43.76836 | -0.16358 | 18299 ft | 397 kts | 346° |
| 2026-04-29 18:12 | 43.79547 | -0.17185 | 18862 ft | 401 kts | 346° |
| 2026-04-29 18:12 | 43.82283 | -0.18019 | 19390 ft | 405 kts | 346° |
| 2026-04-29 18:12 | 43.85044 | -0.18863 | 19913 ft | 409 kts | 346° |
| 2026-04-29 18:12 | 43.87836 | -0.19717 | 20411 ft | 413 kts | 346° |
| 2026-04-29 18:13 | 43.90656 | -0.20581 | 20868 ft | 418 kts | 346° |
| 2026-04-29 18:13 | 43.93507 | -0.21456 | 21372 ft | 421 kts | 346° |
| 2026-04-29 18:13 | 43.96381 | -0.22337 | 21864 ft | 424 kts | 346° |
| 2026-04-29 18:13 | 43.99275 | -0.23226 | 22308 ft | 428 kts | 346° |
| 2026-04-29 18:14 | 44.02202 | -0.24126 | 22748 ft | 432 kts | 346° |
| 2026-04-29 18:14 | 44.05142 | -0.25029 | 23193 ft | 434 kts | 346° |
| 2026-04-29 18:14 | 44.08105 | -0.25941 | 23607 ft | 438 kts | 346° |
| 2026-04-29 18:14 | 44.11090 | -0.26862 | 24011 ft | 442 kts | 346° |
| 2026-04-29 18:15 | 44.14102 | -0.27792 | 24410 ft | 445 kts | 346° |
| 2026-04-29 18:15 | 44.17134 | -0.28729 | 24813 ft | 448 kts | 346° |
| 2026-04-29 18:15 | 44.20183 | -0.29672 | 25233 ft | 449 kts | 346° |
| 2026-04-29 18:15 | 44.23246 | -0.30621 | 25584 ft | 453 kts | 346° |
| 2026-04-29 18:16 | 44.26336 | -0.31578 | 25930 ft | 456 kts | 346° |
| 2026-04-29 18:16 | 44.29447 | -0.32544 | 26287 ft | 459 kts | 346° |
| 2026-04-29 18:16 | 44.32536 | -0.33503 | 26626 ft | 462 kts | 346° |
| 2026-04-29 18:16 | 44.35723 | -0.34494 | 26969 ft | 465 kts | 346° |
| 2026-04-29 18:17 | 44.38844 | -0.35466 | 27289 ft | 467 kts | 346° |
| 2026-04-29 18:17 | 44.42029 | -0.36456 | 27610 ft | 470 kts | 347° |
| 2026-04-29 18:17 | 44.45226 | -0.37453 | 27917 ft | 473 kts | 346° |
| 2026-04-29 18:17 | 44.48446 | -0.38460 | 28212 ft | 475 kts | 346° |
| 2026-04-29 18:18 | 44.51685 | -0.39474 | 28505 ft | 478 kts | 347° |
| 2026-04-29 18:18 | 44.54936 | -0.40492 | 28794 ft | 480 kts | 346° |
| 2026-04-29 18:18 | 44.58202 | -0.41515 | 29054 ft | 482 kts | 346° |
| 2026-04-29 18:18 | 44.61488 | -0.42546 | 29303 ft | 485 kts | 346° |
| 2026-04-29 18:19 | 44.64788 | -0.43584 | 29581 ft | 487 kts | 346° |
| 2026-04-29 18:19 | 44.68105 | -0.44628 | 29859 ft | 489 kts | 346° |
| 2026-04-29 18:19 | 44.71436 | -0.45677 | 30098 ft | 491 kts | 346° |
| 2026-04-29 18:19 | 44.74780 | -0.46731 | 30327 ft | 494 kts | 346° |
| 2026-04-29 18:20 | 44.78132 | -0.47789 | 30603 ft | 495 kts | 346° |
| 2026-04-29 18:20 | 44.81491 | -0.48851 | 30979 ft | 493 kts | 346° |
| 2026-04-29 18:20 | 44.84827 | -0.49905 | 31353 ft | 491 kts | 346° |
| 2026-04-29 18:20 | 44.88166 | -0.50963 | 31657 ft | 491 kts | 346° |
| 2026-04-29 18:21 | 44.91496 | -0.52018 | 31973 ft | 491 kts | 346° |
| 2026-04-29 18:21 | 44.94822 | -0.53073 | 32305 ft | 490 kts | 346° |
| 2026-04-29 18:21 | 44.98143 | -0.54129 | 32613 ft | 489 kts | 346° |
| 2026-04-29 18:21 | 45.01460 | -0.55185 | 32901 ft | 489 kts | 346° |
| 2026-04-29 18:22 | 45.04776 | -0.56243 | 33151 ft | 489 kts | 346° |
| 2026-04-29 18:22 | 45.08099 | -0.57304 | 33431 ft | 488 kts | 346° |
| 2026-04-29 18:22 | 45.11408 | -0.58361 | 33738 ft | 487 kts | 346° |
| 2026-04-29 18:22 | 45.14711 | -0.59419 | 33991 ft | 487 kts | 346° |
| 2026-04-29 18:23 | 45.18019 | -0.60477 | 34231 ft | 487 kts | 346° |
| 2026-04-29 18:23 | 45.20207 | -0.61178 | 34397 ft | 487 kts | 346° |
| 2026-04-29 18:23 | 45.23505 | -0.62235 | 34705 ft | 485 kts | 346° |
| 2026-04-29 18:23 | 45.27891 | -0.63644 | 35105 ft | 482 kts | 346° |
| 2026-04-29 18:24 | 45.30053 | -0.64339 | 35300 ft | 481 kts | 345° |
| 2026-04-29 18:24 | 45.33312 | -0.65388 | 35536 ft | 480 kts | 345° |
| 2026-04-29 18:24 | 45.36565 | -0.66437 | 35746 ft | 480 kts | 345° |
| 2026-04-29 18:24 | 45.39818 | -0.67487 | 35926 ft | 480 kts | 345° |
| 2026-04-29 18:25 | 45.43089 | -0.68546 | 35904 ft | 483 kts | 345° |
| 2026-04-29 18:25 | 45.49642 | -0.70668 | 35913 ft | 482 kts | 345° |
| 2026-04-29 18:26 | 45.56144 | -0.72776 | 35900 ft | 476 kts | 345° |
| 2026-04-29 18:26 | 45.62594 | -0.74873 | 35908 ft | 475 kts | 345° |
| 2026-04-29 18:27 | 45.69026 | -0.76970 | 35908 ft | 474 kts | 345° |
| 2026-04-29 18:27 | 45.75444 | -0.79067 | 35919 ft | 473 kts | 345° |
| 2026-04-29 18:28 | 45.81869 | -0.81170 | 35921 ft | 474 kts | 345° |
| 2026-04-29 18:28 | 45.88312 | -0.83289 | 35928 ft | 476 kts | 345° |
| 2026-04-29 18:29 | 45.94788 | -0.85449 | 35923 ft | 479 kts | 345° |
| 2026-04-29 18:29 | 46.01306 | -0.87572 | 35917 ft | 482 kts | 345° |
| 2026-04-29 18:30 | 46.07844 | -0.89711 | 35922 ft | 482 kts | 345° |
| 2026-04-29 18:30 | 46.14376 | -0.91895 | 35919 ft | 482 kts | 345° |
| 2026-04-29 18:31 | 46.20877 | -0.94197 | 35906 ft | 479 kts | 339° |
| 2026-04-29 18:31 | 46.26833 | -0.98298 | 35927 ft | 473 kts | 328° |
| 2026-04-29 18:32 | 46.32571 | -1.02934 | 35917 ft | 471 kts | 328° |
| 2026-04-29 18:32 | 46.41119 | -1.09793 | 35916 ft | 470 kts | 328° |
| 2026-04-29 18:33 | 46.46887 | -1.14365 | 35925 ft | 469 kts | 328° |
| 2026-04-29 18:33 | 46.52572 | -1.18871 | 35925 ft | 468 kts | 328° |
| 2026-04-29 18:34 | 46.57362 | -1.22676 | 35936 ft | 468 kts | 328° |
| 2026-04-29 18:34 | 46.63997 | -1.27963 | 35935 ft | 468 kts | 328° |
| 2026-04-29 18:35 | 46.69715 | -1.32532 | 35939 ft | 469 kts | 328° |
| 2026-04-29 18:35 | 46.75441 | -1.37117 | 35936 ft | 470 kts | 328° |
| 2026-04-29 18:36 | 46.81172 | -1.41718 | 35940 ft | 470 kts | 328° |
| 2026-04-29 18:36 | 46.86907 | -1.46334 | 35936 ft | 471 kts | 328° |
| 2026-04-29 18:37 | 46.92645 | -1.50965 | 35937 ft | 472 kts | 328° |
| 2026-04-29 18:37 | 46.98398 | -1.55619 | 35929 ft | 472 kts | 328° |
| 2026-04-29 18:38 | 47.04141 | -1.60275 | 35919 ft | 472 kts | 328° |
| 2026-04-29 18:38 | 47.09880 | -1.64938 | 35912 ft | 471 kts | 328° |
| 2026-04-29 18:39 | 47.15605 | -1.69604 | 35922 ft | 470 kts | 328° |
| 2026-04-29 18:39 | 47.21313 | -1.74265 | 35915 ft | 468 kts | 328° |
| 2026-04-29 18:40 | 47.26993 | -1.78914 | 35931 ft | 467 kts | 328° |
| 2026-04-29 18:40 | 47.32660 | -1.83568 | 35932 ft | 466 kts | 328° |
| 2026-04-29 18:41 | 47.43961 | -1.92884 | 35925 ft | 464 kts | 328° |
| 2026-04-29 18:42 | 47.49591 | -1.97541 | 35927 ft | 464 kts | 328° |
| 2026-04-29 18:42 | 47.55219 | -2.02210 | 35922 ft | 463 kts | 328° |
| 2026-04-29 18:43 | 47.60837 | -2.06878 | 35935 ft | 463 kts | 328° |
| 2026-04-29 18:43 | 47.66458 | -2.11561 | 35924 ft | 463 kts | 328° |
| 2026-04-29 18:44 | 47.72074 | -2.16254 | 35927 ft | 464 kts | 328° |
| 2026-04-29 18:44 | 47.77699 | -2.20962 | 35933 ft | 464 kts | 328° |
| 2026-04-29 18:45 | 47.83327 | -2.25688 | 35937 ft | 464 kts | 328° |
| 2026-04-29 18:45 | 47.88953 | -2.30422 | 35935 ft | 465 kts | 328° |
| 2026-04-29 18:46 | 47.94584 | -2.35175 | 35934 ft | 466 kts | 328° |
| 2026-04-29 18:46 | 48.00220 | -2.39944 | 35941 ft | 465 kts | 328° |
| 2026-04-29 18:47 | 48.05849 | -2.44722 | 35944 ft | 465 kts | 328° |
| 2026-04-29 18:47 | 48.11474 | -2.49500 | 35947 ft | 465 kts | 328° |
| 2026-04-29 18:48 | 48.17095 | -2.54291 | 35958 ft | 465 kts | 328° |
| 2026-04-29 18:48 | 48.22719 | -2.59097 | 35953 ft | 465 kts | 328° |
| 2026-04-29 18:49 | 48.28335 | -2.63908 | 35954 ft | 465 kts | 328° |
| 2026-04-29 18:49 | 48.33910 | -2.68697 | 35964 ft | 465 kts | 328° |
| 2026-04-29 18:50 | 48.39523 | -2.73530 | 35961 ft | 464 kts | 328° |
| 2026-04-29 18:50 | 48.45126 | -2.78368 | 35966 ft | 464 kts | 328° |
| 2026-04-29 18:51 | 48.50728 | -2.83222 | 35961 ft | 464 kts | 328° |
| 2026-04-29 18:51 | 48.56324 | -2.88079 | 35962 ft | 464 kts | 328° |
| 2026-04-29 18:52 | 48.61927 | -2.92952 | 35964 ft | 465 kts | 328° |
| 2026-04-29 18:52 | 48.67525 | -2.97832 | 35963 ft | 465 kts | 328° |
| 2026-04-29 18:53 | 48.73134 | -3.02735 | 35965 ft | 466 kts | 328° |
| 2026-04-29 18:53 | 48.78743 | -3.07655 | 35965 ft | 466 kts | 328° |
| 2026-04-29 18:54 | 48.84359 | -3.12594 | 35973 ft | 467 kts | 328° |
| 2026-04-29 18:54 | 48.89985 | -3.17553 | 35972 ft | 468 kts | 328° |
| 2026-04-29 18:55 | 48.95609 | -3.22522 | 35973 ft | 468 kts | 328° |
| 2026-04-29 18:55 | 49.01238 | -3.27511 | 35974 ft | 468 kts | 328° |
| 2026-04-29 18:56 | 49.06855 | -3.32503 | 35978 ft | 468 kts | 328° |
| 2026-04-29 18:56 | 49.12478 | -3.37512 | 35980 ft | 467 kts | 328° |
| 2026-04-29 18:57 | 49.18093 | -3.42526 | 35984 ft | 467 kts | 328° |
| 2026-04-29 18:57 | 49.23702 | -3.47552 | 35986 ft | 467 kts | 328° |
| 2026-04-29 18:58 | 49.29307 | -3.52582 | 35986 ft | 467 kts | 328° |
| 2026-04-29 18:58 | 49.35101 | -3.57063 | 35989 ft | 468 kts | 339° |
| 2026-04-29 18:59 | 49.41225 | -3.60455 | 35984 ft | 468 kts | 340° |
| 2026-04-29 18:59 | 49.47341 | -3.63886 | 35992 ft | 468 kts | 339° |
| 2026-04-29 19:00 | 49.53444 | -3.67346 | 35990 ft | 468 kts | 339° |
| 2026-04-29 19:00 | 49.59547 | -3.70808 | 35996 ft | 467 kts | 339° |
| 2026-04-29 19:01 | 49.65648 | -3.74268 | 36007 ft | 467 kts | 339° |
| 2026-04-29 19:01 | 49.71749 | -3.77733 | 36016 ft | 467 kts | 339° |
| 2026-04-29 19:02 | 49.76818 | -3.80618 | 36024 ft | 467 kts | 339° |
| 2026-04-29 19:02 | 49.83953 | -3.84694 | 36033 ft | 467 kts | 340° |
| 2026-04-29 19:03 | 49.90051 | -3.88185 | 36049 ft | 467 kts | 340° |
| 2026-04-29 19:03 | 49.96151 | -3.91689 | 36052 ft | 468 kts | 339° |
| 2026-04-29 19:04 | 50.02255 | -3.95203 | 36055 ft | 468 kts | 339° |
| 2026-04-29 19:04 | 50.08354 | -3.98724 | 36056 ft | 468 kts | 339° |
| 2026-04-29 19:05 | 50.14456 | -4.02256 | 36063 ft | 468 kts | 339° |
| 2026-04-29 19:05 | 50.20555 | -4.05796 | 36065 ft | 468 kts | 339° |
| 2026-04-29 19:06 | 50.26651 | -4.09345 | 36062 ft | 468 kts | 339° |
| 2026-04-29 19:07 | 50.34775 | -4.14087 | 36067 ft | 468 kts | 339° |
| 2026-04-29 19:07 | 50.40874 | -4.17663 | 36069 ft | 468 kts | 339° |
| 2026-04-29 19:08 | 50.46973 | -4.21246 | 36076 ft | 468 kts | 339° |
| 2026-04-29 19:08 | 50.53073 | -4.24837 | 36083 ft | 468 kts | 339° |
| 2026-04-29 19:09 | 50.59168 | -4.28438 | 36089 ft | 468 kts | 340° |
| 2026-04-29 19:09 | 50.65269 | -4.32052 | 36088 ft | 469 kts | 340° |
| 2026-04-29 19:10 | 50.71373 | -4.35680 | 36097 ft | 469 kts | 340° |
| 2026-04-29 19:10 | 50.77487 | -4.39320 | 36098 ft | 470 kts | 340° |
| 2026-04-29 19:11 | 50.83604 | -4.42974 | 36103 ft | 470 kts | 340° |
| 2026-04-29 19:11 | 50.89728 | -4.46644 | 36106 ft | 471 kts | 340° |
| 2026-04-29 19:12 | 50.95856 | -4.50324 | 36105 ft | 471 kts | 340° |
| 2026-04-29 19:12 | 51.01994 | -4.54025 | 36111 ft | 472 kts | 340° |
| 2026-04-29 19:13 | 51.08137 | -4.57735 | 36113 ft | 472 kts | 340° |
| 2026-04-29 19:13 | 51.14278 | -4.61452 | 36123 ft | 472 kts | 340° |
| 2026-04-29 19:14 | 51.20420 | -4.65181 | 36124 ft | 472 kts | 340° |
| 2026-04-29 19:14 | 51.26522 | -4.68902 | 36134 ft | 472 kts | 340° |
| 2026-04-29 19:15 | 51.32664 | -4.72656 | 36135 ft | 473 kts | 340° |
| 2026-04-29 19:15 | 51.38812 | -4.76423 | 36143 ft | 473 kts | 340° |
| 2026-04-29 19:16 | 51.44954 | -4.80197 | 36145 ft | 473 kts | 340° |
| 2026-04-29 19:16 | 51.51096 | -4.83984 | 36149 ft | 473 kts | 340° |
| 2026-04-29 19:17 | 51.57237 | -4.87779 | 36150 ft | 473 kts | 340° |
| 2026-04-29 19:17 | 51.63374 | -4.91583 | 36157 ft | 473 kts | 340° |
| 2026-04-29 19:18 | 51.69517 | -4.95402 | 36156 ft | 473 kts | 340° |
| 2026-04-29 19:18 | 51.75660 | -4.99233 | 36159 ft | 474 kts | 340° |
| 2026-04-29 19:19 | 51.81811 | -5.03079 | 36165 ft | 474 kts | 340° |
| 2026-04-29 19:19 | 51.87964 | -5.06939 | 36168 ft | 475 kts | 340° |
| 2026-04-29 19:20 | 51.94122 | -5.10814 | 36167 ft | 475 kts | 340° |
| 2026-04-29 19:20 | 52.00288 | -5.14704 | 36170 ft | 475 kts | 340° |
| 2026-04-29 19:21 | 52.06454 | -5.18605 | 36177 ft | 476 kts | 340° |
| 2026-04-29 19:21 | 52.12620 | -5.22526 | 36173 ft | 476 kts | 340° |
| 2026-04-29 19:22 | 52.18794 | -5.26448 | 36182 ft | 476 kts | 340° |
| 2026-04-29 19:22 | 52.24926 | -5.30363 | 36187 ft | 476 kts | 340° |
| 2026-04-29 19:23 | 52.31096 | -5.34316 | 36199 ft | 476 kts | 340° |
| 2026-04-29 19:23 | 52.37274 | -5.38286 | 36206 ft | 477 kts | 340° |
| 2026-04-29 19:24 | 52.43466 | -5.42275 | 35895 ft | 481 kts | 340° |
| 2026-04-29 19:24 | 52.46565 | -5.44277 | 35527 ft | 476 kts | 340° |
| 2026-04-29 19:24 | 52.49634 | -5.46262 | 35112 ft | 472 kts | 340° |
| 2026-04-29 19:24 | 52.52679 | -5.48234 | 34705 ft | 469 kts | 340° |
| 2026-04-29 19:25 | 52.55695 | -5.50210 | 34293 ft | 466 kts | 339° |
| 2026-04-29 19:25 | 52.58646 | -5.52420 | 33738 ft | 467 kts | 336° |
| 2026-04-29 19:25 | 52.61540 | -5.54822 | 33343 ft | 464 kts | 334° |
| 2026-04-29 19:25 | 52.64382 | -5.57275 | 32923 ft | 460 kts | 334° |
| 2026-04-29 19:26 | 52.67211 | -5.59736 | 32522 ft | 457 kts | 333° |
| 2026-04-29 19:26 | 52.70016 | -5.62158 | 32124 ft | 454 kts | 333° |
| 2026-04-29 19:26 | 52.72813 | -5.64551 | 31727 ft | 451 kts | 334° |
| 2026-04-29 19:26 | 52.75593 | -5.66909 | 31337 ft | 448 kts | 334° |
| 2026-04-29 19:27 | 52.78360 | -5.69247 | 30950 ft | 445 kts | 333° |
| 2026-04-29 19:27 | 52.81103 | -5.71559 | 30590 ft | 441 kts | 333° |
| 2026-04-29 19:27 | 52.83847 | -5.73876 | 29826 ft | 447 kts | 333° |
| 2026-04-29 19:27 | 52.86667 | -5.76258 | 28749 ft | 462 kts | 333° |
| 2026-04-29 19:28 | 52.89547 | -5.78695 | 28055 ft | 466 kts | 334° |
| 2026-04-29 19:28 | 52.92416 | -5.81129 | 27652 ft | 461 kts | 334° |
| 2026-04-29 19:28 | 52.95253 | -5.83542 | 27188 ft | 457 kts | 334° |
| 2026-04-29 19:28 | 52.98101 | -5.85966 | 26385 ft | 463 kts | 334° |
| 2026-04-29 19:29 | 53.00974 | -5.88415 | 25770 ft | 463 kts | 334° |
| 2026-04-29 19:29 | 53.03827 | -5.90851 | 25322 ft | 459 kts | 335° |
| 2026-04-29 19:29 | 53.06653 | -5.93268 | 24890 ft | 455 kts | 335° |
| 2026-04-29 19:29 | 53.09452 | -5.95665 | 24433 ft | 451 kts | 335° |
| 2026-04-29 19:30 | 53.12233 | -5.98050 | 23925 ft | 449 kts | 335° |
| 2026-04-29 19:30 | 53.15001 | -6.00427 | 23432 ft | 446 kts | 335° |
| 2026-04-29 19:30 | 53.17753 | -6.02794 | 22972 ft | 443 kts | 335° |
| 2026-04-29 19:30 | 53.20481 | -6.05144 | 22480 ft | 441 kts | 335° |
| 2026-04-29 19:31 | 53.23203 | -6.07492 | 22021 ft | 439 kts | 335° |
| 2026-04-29 19:31 | 53.25900 | -6.09822 | 21596 ft | 435 kts | 335° |
| 2026-04-29 19:31 | 53.28544 | -6.12108 | 21164 ft | 431 kts | 335° |
| 2026-04-29 19:31 | 53.31200 | -6.14409 | 20724 ft | 429 kts | 335° |
| 2026-04-29 19:32 | 53.33879 | -6.16730 | 20254 ft | 427 kts | 335° |
| 2026-04-29 19:32 | 53.36506 | -6.19013 | 19807 ft | 425 kts | 335° |
| 2026-04-29 19:32 | 53.39086 | -6.21259 | 19369 ft | 422 kts | 335° |
| 2026-04-29 19:32 | 53.41688 | -6.23523 | 18946 ft | 419 kts | 335° |
| 2026-04-29 19:33 | 53.44264 | -6.25770 | 18528 ft | 416 kts | 335° |
| 2026-04-29 19:33 | 53.46829 | -6.28004 | 18098 ft | 414 kts | 336° |
| 2026-04-29 19:33 | 53.49487 | -6.29738 | 17642 ft | 407 kts | 349° |
| 2026-04-29 19:33 | 53.52242 | -6.30560 | 17231 ft | 398 kts | 0° |
| 2026-04-29 19:34 | 53.54979 | -6.30557 | 16860 ft | 390 kts | 7° |
| 2026-04-29 19:34 | 53.57715 | -6.30352 | 16477 ft | 387 kts | 8° |
| 2026-04-29 19:34 | 53.60358 | -6.30134 | 16066 ft | 384 kts | 8° |
| 2026-04-29 19:34 | 53.63057 | -6.29917 | 15646 ft | 382 kts | 7° |
| 2026-04-29 19:35 | 53.65707 | -6.29718 | 15256 ft | 380 kts | 7° |
| 2026-04-29 19:35 | 53.68340 | -6.29531 | 14888 ft | 377 kts | 7° |
| 2026-04-29 19:35 | 53.70912 | -6.29357 | 14516 ft | 374 kts | 7° |
| 2026-04-29 19:35 | 53.73499 | -6.29186 | 14112 ft | 372 kts | 7° |
| 2026-04-29 19:36 | 53.76076 | -6.29018 | 13736 ft | 368 kts | 7° |
| 2026-04-29 19:36 | 53.78625 | -6.28852 | 13333 ft | 366 kts | 7° |
| 2026-04-29 19:36 | 53.81161 | -6.28685 | 12944 ft | 364 kts | 7° |
| 2026-04-29 19:36 | 53.83685 | -6.28519 | 12577 ft | 361 kts | 6° |
| 2026-04-29 19:37 | 53.85303 | -6.28415 | 12338 ft | 360 kts | 6° |
| 2026-04-29 19:37 | 53.88666 | -6.28198 | 11832 ft | 356 kts | 6° |
| 2026-04-29 19:37 | 53.89981 | -6.28111 | 11614 ft | 355 kts | 6° |
| 2026-04-29 19:38 | 53.91844 | -6.27989 | 11330 ft | 354 kts | 6° |
| 2026-04-29 19:38 | 53.94303 | -6.27826 | 10964 ft | 352 kts | 6° |
| 2026-04-29 19:38 | 53.95195 | -6.27768 | 10841 ft | 351 kts | 6° |
| 2026-04-29 19:39 | 53.95890 | -6.27722 | 10744 ft | 350 kts | 6° |
| 2026-04-29 19:39 | 53.96743 | -6.27665 | 10616 ft | 349 kts | 6° |
| 2026-04-29 19:39 | 53.97769 | -6.27597 | 10465 ft | 348 kts | 6° |
| 2026-04-29 19:40 | 53.98531 | -6.27546 | 10345 ft | 347 kts | 6° |
| 2026-04-29 19:40 | 54.00938 | -6.27389 | 9954 ft | 346 kts | 6° |
| 2026-04-29 19:40 | 54.02207 | -6.27305 | 9750 ft | 346 kts | 6° |
| 2026-04-29 19:41 | 54.02542 | -6.27283 | 9702 ft | 345 kts | 6° |
| 2026-04-29 19:41 | 54.04931 | -6.27126 | 9412 ft | 341 kts | 5° |
| 2026-04-29 19:41 | 54.07268 | -6.26974 | 9340 ft | 330 kts | 5° |
| 2026-04-29 19:42 | 54.09236 | -6.26845 | 9280 ft | 321 kts | 5° |
| 2026-04-29 19:43 | 54.09986 | -6.26796 | 9248 ft | 318 kts | 5° |
| 2026-04-29 19:43 | 54.10207 | -6.26782 | 9240 ft | 317 kts | 5° |
| 2026-04-29 19:44 | 54.12343 | -6.26641 | 9176 ft | 309 kts | 5° |
| 2026-04-29 19:44 | 54.14457 | -6.26499 | 9118 ft | 300 kts | 6° |
| 2026-04-29 19:44 | 54.15357 | -6.26438 | 9084 ft | 296 kts | 6° |
| 2026-04-29 19:44 | 54.16517 | -6.26359 | 8986 ft | 293 kts | 6° |
| 2026-04-29 19:45 | 54.18549 | -6.26219 | 8688 ft | 293 kts | 6° |
| 2026-04-29 19:45 | 54.20571 | -6.26084 | 8430 ft | 292 kts | 6° |
| 2026-04-29 19:45 | 54.22591 | -6.25945 | 8179 ft | 291 kts | 6° |
| 2026-04-29 19:45 | 54.24610 | -6.25806 | 7929 ft | 290 kts | 6° |
| 2026-04-29 19:46 | 54.26625 | -6.25671 | 7687 ft | 289 kts | 6° |
| 2026-04-29 19:46 | 54.28626 | -6.25579 | 7451 ft | 288 kts | 360° |
| 2026-04-29 19:46 | 54.30574 | -6.26510 | 7133 ft | 295 kts | 336° |
| 2026-04-29 19:46 | 54.32409 | -6.28067 | 6886 ft | 294 kts | 336° |
| 2026-04-29 19:47 | 54.34237 | -6.29642 | 6669 ft | 293 kts | 335° |
| 2026-04-29 19:47 | 54.36048 | -6.31199 | 6450 ft | 291 kts | 336° |
| 2026-04-29 19:47 | 54.37863 | -6.32750 | 6205 ft | 292 kts | 336° |
| 2026-04-29 19:47 | 54.39683 | -6.34297 | 5969 ft | 291 kts | 336° |
| 2026-04-29 19:48 | 54.41504 | -6.35841 | 5732 ft | 290 kts | 336° |
| 2026-04-29 19:48 | 54.42691 | -6.36847 | 5573 ft | 289 kts | 336° |
| 2026-04-29 19:48 | 54.45091 | -6.38871 | 5275 ft | 288 kts | 336° |
| 2026-04-29 19:48 | 54.46877 | -6.40382 | 5092 ft | 286 kts | 337° |
| 2026-04-29 19:49 | 54.48661 | -6.41893 | 4848 ft | 285 kts | 337° |
| 2026-04-29 19:49 | 54.50443 | -6.43404 | 4593 ft | 285 kts | 337° |
| 2026-04-29 19:49 | 54.52221 | -6.44864 | 4341 ft | 284 kts | 339° |
| 2026-04-29 19:49 | 54.53839 | -6.46164 | 3797 ft | 293 kts | 339° |
| 2026-04-29 19:50 | 54.54353 | -6.46555 | 3695 ft | 290 kts | 343° |
| 2026-04-29 19:50 | 54.56025 | -6.47127 | 3365 ft | 273 kts | 9° |
| 2026-04-29 19:51 | 54.57768 | -6.46326 | 3101 ft | 250 kts | 34° |
| 2026-04-29 19:51 | 54.59134 | -6.44652 | 2809 ft | 235 kts | 50° |
| 2026-04-29 19:51 | 54.60085 | -6.42528 | 2623 ft | 209 kts | 65° |
| 2026-04-29 19:51 | 54.60703 | -6.40385 | 2295 ft | 193 kts | 68° |
| 2026-04-29 19:52 | 54.61242 | -6.38370 | 2048 ft | 176 kts | 68° |
| 2026-04-29 19:52 | 54.61734 | -6.36528 | 1816 ft | 162 kts | 68° |
| 2026-04-29 19:52 | 54.62188 | -6.34830 | 1628 ft | 152 kts | 68° |
| 2026-04-29 19:52 | 54.62617 | -6.33234 | 1445 ft | 144 kts | 67° |
| 2026-04-29 19:53 | 54.63034 | -6.31678 | 1260 ft | 143 kts | 66° |
| 2026-04-29 19:53 | 54.63458 | -6.30099 | 1097 ft | 146 kts | 66° |
| 2026-04-29 19:53 | 54.63713 | -6.29175 | 1019 ft | 143 kts | 66° |
| 2026-04-29 19:53 | 54.64043 | -6.27925 | 868 ft | 143 kts | 67° |
| 2026-04-29 19:54 | 54.64870 | -6.24842 | 490 ft | 139 kts | 66° |
| 2026-04-29 19:54 | 54.65273 | -6.23359 | 298 ft | 135 kts | 67° |
| 2026-04-29 19:54 | 54.65627 | -6.22030 | 274 ft | 96 kts | 65° |
| 2026-04-29 19:55 | 54.65821 | -6.21309 | 271 ft | 46 kts | 65° |
| 2026-04-29 19:55 | 54.65921 | -6.20953 | 271 ft | 27 kts | 65° |
| 2026-04-29 19:55 | 54.65995 | -6.20671 | 271 ft | 25 kts | 66° |
| 2026-04-29 19:55 | 54.66063 | -6.20412 | 271 ft | 23 kts | 64° |
| 2026-04-29 19:56 | 54.66131 | -6.20162 | 273 ft | 22 kts | 65° |
| 2026-04-29 19:56 | 54.66195 | -6.19924 | 271 ft | 22 kts | 65° |
| 2026-04-29 19:56 | 54.66258 | -6.19696 | 275 ft | 17 kts | 58° |
| 2026-04-29 19:56 | 54.66333 | -6.19685 | 271 ft | 12 kts | 332° |
| 2026-04-29 19:57 | 54.66387 | -6.19781 | 271 ft | 11 kts | 297° |
| 2026-04-29 19:57 | 54.66393 | -6.19867 | 271 ft | 11 kts | 255° |
| 2026-04-29 19:57 | 54.66352 | -6.20024 | 271 ft | 11 kts | 245° |
| 2026-04-29 19:57 | 54.66320 | -6.20142 | 271 ft | 12 kts | 245° |
| 2026-04-29 19:58 | 54.66294 | -6.20239 | 271 ft | 15 kts | 245° |
| 2026-04-29 19:58 | 54.66242 | -6.20432 | 271 ft | 20 kts | 245° |
| 2026-04-29 19:58 | 54.66177 | -6.20676 | 272 ft | 23 kts | 245° |
| 2026-04-29 19:58 | 54.66109 | -6.20924 | 275 ft | 22 kts | 245° |
| 2026-04-29 19:59 | 54.66044 | -6.21165 | 273 ft | 22 kts | 245° |
| 2026-04-29 19:59 | 54.65981 | -6.21399 | 275 ft | 21 kts | 245° |
| 2026-04-29 19:59 | 54.65953 | -6.21574 | 275 ft | 11 kts | 295° |
| 2026-04-29 19:59 | 54.66018 | -6.21641 | 271 ft | 11 kts | 336° |
| 2026-04-29 20:00 | 54.66049 | -6.21725 | 272 ft | 8 kts | 285° |
| 2026-04-29 20:00 | 54.66057 | -6.21782 | 271 ft | 1 kts | 285° |
| 2026-04-29 20:00 | 54.66058 | -6.21786 | 274 ft | 0 kts | 285° |